createdAt,value
2019-05-19T00:02:19.714Z,66.40
2019-05-19T00:04:51.016Z,66.40
2019-05-19T00:07:22.357Z,66.40
2019-05-19T00:09:53.681Z,66.50
2019-05-19T00:12:24.883Z,66.50
2019-05-19T00:14:56.199Z,66.40
2019-05-19T00:17:27.409Z,66.20
2019-05-19T00:19:58.745Z,66.20
2019-05-19T00:22:30.027Z,66.20
2019-05-19T00:25:01.404Z,66.40
2019-05-19T00:27:32.609Z,66.50
2019-05-19T00:30:04.227Z,66.50
2019-05-19T00:32:35.427Z,66.40
2019-05-19T00:35:06.859Z,66.40
2019-05-19T00:37:38.126Z,66.40
2019-05-19T00:40:09.371Z,66.40
2019-05-19T00:42:55.712Z,66.50
2019-05-19T00:45:26.998Z,66.50
2019-05-19T00:47:58.286Z,66.50
2019-05-19T00:50:29.492Z,66.60
2019-05-19T00:53:00.703Z,66.60
2019-05-19T00:55:32.009Z,66.70
2019-05-19T00:58:03.269Z,66.70
2019-05-19T01:00:34.504Z,66.70
2019-05-19T01:03:05.758Z,66.80
2019-05-19T01:05:36.974Z,66.80
2019-05-19T01:08:08.248Z,66.90
2019-05-19T01:10:39.485Z,66.90
2019-05-19T01:13:10.681Z,66.90
2019-05-19T01:15:42.032Z,66.80
2019-05-19T01:18:13.357Z,67.00
2019-05-19T01:20:44.586Z,66.80
2019-05-19T01:23:15.797Z,66.50
2019-05-19T01:25:47.191Z,66.20
2019-05-19T01:28:18.402Z,66.50
2019-05-19T01:30:49.712Z,66.40
2019-05-19T01:33:21.024Z,66.50
2019-05-19T01:35:52.251Z,66.70
2019-05-19T01:38:23.529Z,67.30
2019-05-19T01:40:54.761Z,66.60
2019-05-19T01:43:26.048Z,66.60
2019-05-19T01:45:57.278Z,66.60
2019-05-19T01:48:28.489Z,66.80
2019-05-19T01:50:59.780Z,66.70
2019-05-19T01:53:30.912Z,66.60
2019-05-19T01:56:02.269Z,66.30
2019-05-19T01:58:33.492Z,66.20
2019-05-19T02:01:04.699Z,66.60
2019-05-19T02:03:35.913Z,66.50
2019-05-19T02:06:07.121Z,66.70
2019-05-19T02:08:38.423Z,66.60
2019-05-19T02:11:09.624Z,66.70
2019-05-19T02:13:40.924Z,66.60
2019-05-19T02:16:12.205Z,66.60
2019-05-19T02:18:43.535Z,66.80
2019-05-19T02:21:14.798Z,66.80
2019-05-19T02:23:46.115Z,66.90
2019-05-19T02:26:17.492Z,66.60
2019-05-19T02:28:48.758Z,66.40
2019-05-19T02:31:20.042Z,66.20
2019-05-19T02:33:51.306Z,66.20
2019-05-19T02:36:22.535Z,66.20
2019-05-19T02:38:53.825Z,66.00
2019-05-19T02:41:25.031Z,65.80
2019-05-19T02:43:56.346Z,65.70
2019-05-19T02:46:27.548Z,66.00
2019-05-19T02:48:58.769Z,66.70
2019-05-19T02:51:29.997Z,66.20
2019-05-19T02:54:01.422Z,66.10
2019-05-19T02:56:33.089Z,66.00
2019-05-19T02:59:04.384Z,66.00
2019-05-19T03:01:37.768Z,66.00
2019-05-19T03:04:09.129Z,66.30
2019-05-19T03:06:40.332Z,66.40
2019-05-19T03:09:11.547Z,66.50
2019-05-19T03:11:42.759Z,66.60
2019-05-19T03:14:13.972Z,66.60
2019-05-19T03:16:45.331Z,66.60
2019-05-19T03:19:16.626Z,66.60
2019-05-19T03:21:47.819Z,66.60
2019-05-19T03:24:19.080Z,66.60
2019-05-19T03:26:50.506Z,66.70
2019-05-19T03:29:26.409Z,66.80
2019-05-19T03:32:12.716Z,66.70
2019-05-19T03:34:44.238Z,66.60
2019-05-19T03:37:15.369Z,66.80
2019-05-19T03:39:46.712Z,66.80
2019-05-19T03:42:17.924Z,66.90
2019-05-19T03:44:49.216Z,67.00
2019-05-19T03:47:20.441Z,66.90
2019-05-19T03:49:51.590Z,66.90
2019-05-19T03:52:22.850Z,67.00
2019-05-19T03:54:54.115Z,66.90
2019-05-19T03:57:25.334Z,66.80
2019-05-19T03:59:56.553Z,66.60
2019-05-19T04:02:27.759Z,66.50
2019-05-19T04:04:58.977Z,66.70
2019-05-19T04:07:30.211Z,66.30
2019-05-19T04:10:01.437Z,66.20
2019-05-19T04:12:32.709Z,66.10
2019-05-19T04:15:04.074Z,66.50
2019-05-19T04:17:35.284Z,66.50
2019-05-19T04:20:06.661Z,66.40
2019-05-19T04:22:37.938Z,66.80
2019-05-19T04:25:09.446Z,66.80
2019-05-19T04:27:40.714Z,66.90
2019-05-19T04:30:11.937Z,67.00
2019-05-19T04:32:43.138Z,67.00
2019-05-19T04:35:14.366Z,67.10
2019-05-19T04:37:45.560Z,67.20
2019-05-19T04:40:16.878Z,67.30
2019-05-19T04:42:48.164Z,67.30
2019-05-19T04:45:19.402Z,67.40
2019-05-19T04:47:50.617Z,67.50
2019-05-19T04:50:21.840Z,67.60
2019-05-19T04:52:53.106Z,67.40
2019-05-19T04:55:24.336Z,67.00
2019-05-19T04:57:55.638Z,66.70
2019-05-19T05:00:26.869Z,66.60
2019-05-19T05:02:58.050Z,66.80
2019-05-19T05:05:29.273Z,66.90
2019-05-19T05:08:00.516Z,66.70
2019-05-19T05:10:31.743Z,66.90
2019-05-19T05:13:02.949Z,67.00
2019-05-19T05:15:34.290Z,67.00
2019-05-19T05:18:05.425Z,67.00
2019-05-19T05:20:36.670Z,67.00
2019-05-19T05:23:07.903Z,67.20
2019-05-19T05:25:39.113Z,67.20
2019-05-19T05:28:10.388Z,67.30
2019-05-19T05:30:41.625Z,67.20
2019-05-19T05:33:12.931Z,67.00
2019-05-19T05:35:44.376Z,67.00
2019-05-19T05:38:15.641Z,66.90
2019-05-19T05:40:47.416Z,67.10
2019-05-19T05:43:18.690Z,67.00
2019-05-19T05:45:49.976Z,67.30
2019-05-19T05:48:21.164Z,67.30
2019-05-19T05:50:52.380Z,67.50
2019-05-19T05:53:23.605Z,67.20
2019-05-19T05:55:57.070Z,67.10
2019-05-19T05:58:28.285Z,67.10
2019-05-19T06:00:59.498Z,67.30
2019-05-19T06:03:30.734Z,67.40
2019-05-19T06:06:01.943Z,67.30
2019-05-19T06:08:33.246Z,67.70
2019-05-19T06:11:04.519Z,67.80
2019-05-19T06:13:35.760Z,68.00
2019-05-19T06:16:06.949Z,68.10
2019-05-19T06:18:38.368Z,68.10
2019-05-19T06:21:09.614Z,68.10
2019-05-19T06:23:40.840Z,68.10
2019-05-19T06:26:12.138Z,68.10
2019-05-19T06:28:43.366Z,68.30
2019-05-19T06:31:14.568Z,68.30
2019-05-19T06:33:45.903Z,68.50
2019-05-19T06:36:17.100Z,68.60
2019-05-19T06:38:48.422Z,68.60
2019-05-19T06:41:19.623Z,68.40
2019-05-19T06:43:50.858Z,68.40
2019-05-19T06:46:22.222Z,68.50
2019-05-19T06:48:53.792Z,68.50
2019-05-19T06:51:25.078Z,68.60
2019-05-19T06:53:56.399Z,68.60
2019-05-19T06:56:27.705Z,68.90
2019-05-19T06:58:59.013Z,69.20
2019-05-19T07:01:30.163Z,69.00
2019-05-19T07:04:01.473Z,69.00
2019-05-19T07:06:34.262Z,68.90
2019-05-19T07:09:07.437Z,68.90
2019-05-19T07:11:38.736Z,68.90
2019-05-19T07:14:09.997Z,68.90
2019-05-19T07:16:41.304Z,69.00
2019-05-19T07:19:12.623Z,68.90
2019-05-19T07:21:43.884Z,68.90
2019-05-19T07:24:15.266Z,68.80
2019-05-19T07:26:46.548Z,68.90
2019-05-19T07:29:18.824Z,68.90
2019-05-19T07:31:50.143Z,69.00
2019-05-19T07:34:22.545Z,69.20
2019-05-19T07:36:53.846Z,69.40
2019-05-19T07:39:25.152Z,69.30
2019-05-19T07:41:56.462Z,69.50
2019-05-19T07:44:27.706Z,69.40
2019-05-19T07:46:58.933Z,69.40
2019-05-19T07:49:30.172Z,70.00
2019-05-19T07:52:01.392Z,69.20
2019-05-19T07:54:32.697Z,69.20
2019-05-19T07:57:03.991Z,69.20
2019-05-19T07:59:35.310Z,69.40
2019-05-19T08:02:06.615Z,69.30
2019-05-19T08:04:37.947Z,69.50
2019-05-19T08:07:09.163Z,69.80
2019-05-19T08:09:40.546Z,70.00
2019-05-19T08:12:11.910Z,70.10
2019-05-19T08:14:43.165Z,70.10
2019-05-19T08:17:14.463Z,70.20
2019-05-19T08:19:45.881Z,70.40
2019-05-19T08:22:17.155Z,71.30
2019-05-19T08:24:48.708Z,70.70
2019-05-19T08:27:19.994Z,70.40
2019-05-19T08:29:51.244Z,70.50
2019-05-19T08:32:22.690Z,70.50
2019-05-19T08:34:54.144Z,70.70
2019-05-19T08:37:25.534Z,71.40
2019-05-19T08:39:56.887Z,70.50
2019-05-19T08:42:28.127Z,70.10
2019-05-19T08:44:59.451Z,70.10
2019-05-19T08:47:30.769Z,70.30
2019-05-19T08:50:02.108Z,70.20
2019-05-19T08:52:33.537Z,70.10
2019-05-19T08:55:04.953Z,70.00
2019-05-19T08:57:36.378Z,69.60
2019-05-19T09:00:07.827Z,69.40
2019-05-19T09:02:39.242Z,69.40
2019-05-19T09:05:10.632Z,69.10
2019-05-19T09:07:42.009Z,69.30
2019-05-19T09:10:14.885Z,69.30
2019-05-19T09:12:46.333Z,69.30
2019-05-19T09:15:17.571Z,69.30
2019-05-19T09:17:48.888Z,69.20
2019-05-19T09:20:20.125Z,69.20
2019-05-19T09:22:51.582Z,69.10
2019-05-19T09:25:22.849Z,68.90
2019-05-19T09:27:54.183Z,68.70
2019-05-19T09:30:25.390Z,68.70
2019-05-19T09:32:56.677Z,69.60
2019-05-19T09:35:27.934Z,69.00
2019-05-19T09:37:59.350Z,68.80
2019-05-19T09:40:30.643Z,68.80
2019-05-19T09:43:01.884Z,68.60
2019-05-19T09:45:33.194Z,68.40
2019-05-19T09:48:04.511Z,68.30
2019-05-19T09:50:35.809Z,68.70
2019-05-19T09:53:07.029Z,68.40
2019-05-19T09:55:38.311Z,68.40
2019-05-19T09:58:09.491Z,68.50
2019-05-19T10:00:40.864Z,68.60
2019-05-19T10:03:12.239Z,68.50
2019-05-19T10:05:43.577Z,68.50
2019-05-19T10:08:14.883Z,68.00
2019-05-19T10:11:30.787Z,68.20
2019-05-19T10:14:02.168Z,68.00
2019-05-19T10:16:33.536Z,67.60
2019-05-19T10:19:04.975Z,67.70
2019-05-19T10:21:36.354Z,67.40
2019-05-19T10:24:07.777Z,66.90
2019-05-19T10:26:38.889Z,67.20
2019-05-19T10:29:10.202Z,67.40
2019-05-19T10:31:41.534Z,66.90
2019-05-19T10:34:12.871Z,67.10
2019-05-19T10:36:44.086Z,67.00
2019-05-19T10:39:15.316Z,66.80
2019-05-19T10:41:46.552Z,66.40
2019-05-19T10:44:17.948Z,66.50
2019-05-19T10:46:49.302Z,66.40
2019-05-19T10:49:20.667Z,66.40
2019-05-19T10:51:52.107Z,66.00
2019-05-19T10:54:23.335Z,66.10
2019-05-19T10:56:54.612Z,66.50
2019-05-19T10:59:25.826Z,66.60
2019-05-19T11:01:57.033Z,66.40
2019-05-19T11:04:28.355Z,66.40
2019-05-19T11:06:59.489Z,66.50
2019-05-19T11:09:30.721Z,66.40
2019-05-19T11:12:02.009Z,66.60
2019-05-19T11:14:33.222Z,66.60
2019-05-19T11:17:04.451Z,66.60
2019-05-19T11:19:35.707Z,66.50
2019-05-19T11:22:06.909Z,66.10
2019-05-19T11:24:38.135Z,66.10
2019-05-19T11:27:10.136Z,66.10
2019-05-19T11:29:41.404Z,66.00
2019-05-19T11:32:12.613Z,65.90
2019-05-19T11:34:43.825Z,66.00
2019-05-19T11:37:15.148Z,65.70
2019-05-19T11:39:46.451Z,64.90
2019-05-19T11:42:17.638Z,64.80
2019-05-19T11:44:48.880Z,65.20
2019-05-19T11:47:20.164Z,65.30
2019-05-19T11:49:51.538Z,64.70
2019-05-19T11:52:22.729Z,64.90
2019-05-19T11:54:53.953Z,65.10
2019-05-19T11:57:25.220Z,65.10
2019-05-19T11:59:56.524Z,64.90
2019-05-19T12:02:27.806Z,64.70
2019-05-19T12:04:59.035Z,64.70
2019-05-19T12:07:32.664Z,64.50
2019-05-19T12:10:04.059Z,64.60
2019-05-19T12:12:35.358Z,64.20
2019-05-19T12:15:06.929Z,64.30
2019-05-19T12:17:38.232Z,64.00
2019-05-19T12:20:09.595Z,64.10
2019-05-19T12:22:40.844Z,63.80
2019-05-19T12:25:12.316Z,63.00
2019-05-19T12:27:43.615Z,63.60
2019-05-19T12:30:19.680Z,63.60
2019-05-19T12:32:51.024Z,63.50
2019-05-19T12:35:22.310Z,63.80
2019-05-19T12:37:53.543Z,63.50
2019-05-19T12:40:24.857Z,63.80
2019-05-19T12:42:56.167Z,63.60
2019-05-19T12:45:27.419Z,63.30
2019-05-19T12:47:58.842Z,62.90
2019-05-19T12:50:30.155Z,62.90
2019-05-19T12:53:01.479Z,62.80
2019-05-19T12:55:32.765Z,63.10
2019-05-19T12:58:04.042Z,62.60
2019-05-19T13:00:35.435Z,62.90
2019-05-19T13:03:06.725Z,63.10
2019-05-19T13:05:38.194Z,61.90
2019-05-19T13:08:11.518Z,61.90
2019-05-19T13:10:42.662Z,62.20
2019-05-19T13:13:13.960Z,62.30
2019-05-19T13:15:45.215Z,62.10
2019-05-19T13:18:17.517Z,61.70
2019-05-19T13:20:49.007Z,62.20
2019-05-19T13:23:20.161Z,62.40
2019-05-19T13:25:51.473Z,62.20
2019-05-19T13:28:22.861Z,61.70
2019-05-19T13:30:54.091Z,61.40
2019-05-19T13:33:25.465Z,61.60
2019-05-19T13:35:56.822Z,61.40
2019-05-19T13:38:28.084Z,61.40
2019-05-19T13:40:59.294Z,61.70
2019-05-19T13:43:30.656Z,61.50
2019-05-19T13:46:02.023Z,61.50
2019-05-19T13:48:33.251Z,61.70
2019-05-19T13:51:06.029Z,61.50
2019-05-19T13:53:37.367Z,61.40
2019-05-19T13:56:08.727Z,61.00
2019-05-19T13:58:40.049Z,61.60
2019-05-19T14:01:11.345Z,60.50
2019-05-19T14:03:42.759Z,60.80
2019-05-19T14:06:14.058Z,60.70
2019-05-19T14:08:45.366Z,61.00
2019-05-19T14:11:16.593Z,61.00
2019-05-19T14:13:51.061Z,61.60
2019-05-19T14:16:22.303Z,61.70
2019-05-19T14:18:53.686Z,61.50
2019-05-19T14:21:24.956Z,61.80
2019-05-19T14:23:56.259Z,61.60
2019-05-19T14:26:27.481Z,62.10
2019-05-19T14:28:58.722Z,61.80
2019-05-19T14:31:30.025Z,61.00
2019-05-19T14:34:01.262Z,61.30
2019-05-19T14:36:32.672Z,60.20
2019-05-19T14:39:06.197Z,60.60
2019-05-19T14:41:41.914Z,60.70
2019-05-19T14:44:13.298Z,60.50
2019-05-19T14:46:44.591Z,60.00
2019-05-19T14:49:15.910Z,59.20
2019-05-19T14:51:47.194Z,59.60
2019-05-19T14:54:18.526Z,60.70
2019-05-19T14:56:49.842Z,60.10
2019-05-19T14:59:21.255Z,59.40
2019-05-19T15:01:52.788Z,59.10
2019-05-19T15:04:24.104Z,59.80
2019-05-19T15:06:55.326Z,59.90
2019-05-19T15:09:26.702Z,60.10
2019-05-19T15:11:58.070Z,59.90
2019-05-19T15:14:29.455Z,60.20
2019-05-19T15:17:00.739Z,60.30
2019-05-19T15:19:32.067Z,60.10
2019-05-19T15:22:03.276Z,60.60
2019-05-19T15:24:34.596Z,59.50
2019-05-19T15:27:06.048Z,59.60
2019-05-19T15:29:37.288Z,59.10
2019-05-19T15:32:08.492Z,59.40
2019-05-19T15:34:39.884Z,59.90
2019-05-19T15:37:11.122Z,59.50
2019-05-19T15:39:42.366Z,60.00
2019-05-19T15:42:13.668Z,59.80
2019-05-19T15:44:45.043Z,59.60
2019-05-19T15:47:16.385Z,59.40
2019-05-19T15:49:47.688Z,59.90
2019-05-19T15:52:19.037Z,59.60
2019-05-19T15:54:50.356Z,60.20
2019-05-19T15:57:21.632Z,60.50
2019-05-19T15:59:52.900Z,60.50
2019-05-19T16:02:24.177Z,60.70
2019-05-19T16:04:55.412Z,60.10
2019-05-19T16:07:26.709Z,60.60
2019-05-19T16:09:58.036Z,60.70
2019-05-19T16:12:29.480Z,60.50
2019-05-19T16:15:00.787Z,60.50
2019-05-19T16:17:32.077Z,60.50
2019-05-19T16:20:03.484Z,60.00
2019-05-19T16:25:44.470Z,59.50
2019-05-19T16:28:29.884Z,60.10
2019-05-19T16:31:00.106Z,59.50
2019-05-19T16:33:32.854Z,60.30
2019-05-19T16:36:07.753Z,60.60
2019-05-19T16:38:37.960Z,60.70
2019-05-19T16:41:09.478Z,60.90
2019-05-19T16:43:40.768Z,60.30
2019-05-19T16:46:12.007Z,59.90
2019-05-19T16:48:43.375Z,60.10
2019-05-19T16:51:14.609Z,60.10
2019-05-19T16:53:47.714Z,60.00
2019-05-19T16:56:19.034Z,60.60
2019-05-19T16:58:51.437Z,60.30
2019-05-19T17:01:22.853Z,60.60
2019-05-19T17:03:54.158Z,60.50
2019-05-19T17:06:25.485Z,60.90
2019-05-19T17:08:56.817Z,59.80
2019-05-19T17:11:29.605Z,59.90
2019-05-19T17:14:01.038Z,59.60
2019-05-19T17:16:33.426Z,59.70
2019-05-19T17:19:05.333Z,59.20
2019-05-19T17:21:38.237Z,59.70
2019-05-19T17:24:09.685Z,59.70
2019-05-19T17:26:40.954Z,59.20
2019-05-19T17:29:12.290Z,59.80
2019-05-19T17:31:43.608Z,60.00
2019-05-19T17:34:14.979Z,59.90
2019-05-19T17:36:46.233Z,59.50
2019-05-19T17:39:17.533Z,59.90
2019-05-19T17:41:49.222Z,59.50
2019-05-19T17:44:20.715Z,58.90
2019-05-19T17:46:57.471Z,59.20
2019-05-19T17:49:27.843Z,59.10
2019-05-19T17:52:01.331Z,59.40
2019-05-19T17:54:35.816Z,59.50
2019-05-19T17:57:13.181Z,59.70
2019-05-19T17:59:48.100Z,59.40
2019-05-19T18:02:21.018Z,59.10
2019-05-19T18:04:53.994Z,59.50
2019-05-19T18:07:25.834Z,59.50
2019-05-19T18:09:57.516Z,59.10
2019-05-19T18:12:29.297Z,58.10
2019-05-19T18:15:03.371Z,57.80
2019-05-19T18:17:34.764Z,57.50
2019-05-19T18:20:06.740Z,57.60
2019-05-19T18:22:38.474Z,57.40
2019-05-19T18:25:12.366Z,57.60
2019-05-19T18:27:44.026Z,57.20
2019-05-19T18:30:16.525Z,57.00
2019-05-19T18:32:48.001Z,57.40
2019-05-19T18:35:19.376Z,57.60
2019-05-19T18:37:50.669Z,57.80
2019-05-19T18:40:21.874Z,58.50
2019-05-19T18:42:53.246Z,60.00
2019-05-19T18:45:24.787Z,61.00
2019-05-19T18:47:58.153Z,61.90
2019-05-19T18:50:29.714Z,61.10
2019-05-19T18:53:01.168Z,61.50
2019-05-19T18:55:32.883Z,62.30
2019-05-19T18:58:04.241Z,62.80
2019-05-19T19:00:37.849Z,63.10
2019-05-19T19:03:09.107Z,64.00
2019-05-19T19:05:40.398Z,63.60
2019-05-19T19:08:11.719Z,63.90
2019-05-19T19:10:43.016Z,64.10
2019-05-19T19:13:14.288Z,64.20
2019-05-19T19:15:45.617Z,64.40
2019-05-19T19:18:17.021Z,64.60
2019-05-19T19:20:48.491Z,64.60
2019-05-19T19:23:19.879Z,65.30
2019-05-19T19:25:51.182Z,64.80
2019-05-19T19:28:22.412Z,65.00
2019-05-19T19:30:53.773Z,65.20
2019-05-19T19:33:25.192Z,65.50
2019-05-19T19:35:56.424Z,65.70
2019-05-19T19:38:30.211Z,65.70
2019-05-19T19:41:01.467Z,65.90
2019-05-19T19:43:32.783Z,66.10
2019-05-19T19:46:04.099Z,66.00
2019-05-19T19:48:35.430Z,66.10
2019-05-19T19:51:06.723Z,66.50
2019-05-19T19:53:38.028Z,66.60
2019-05-19T19:56:09.315Z,66.80
2019-05-19T19:58:40.623Z,67.00
2019-05-19T20:01:11.848Z,67.10
2019-05-19T20:03:43.138Z,67.20
2019-05-19T20:06:14.341Z,67.40
2019-05-19T20:08:45.565Z,67.60
2019-05-19T20:11:17.328Z,67.60
2019-05-19T20:13:48.554Z,67.60
2019-05-19T20:16:19.800Z,67.50
2019-05-19T20:18:51.073Z,67.60
2019-05-19T20:21:22.273Z,67.70
2019-05-19T20:23:53.535Z,68.00
2019-05-19T20:26:24.739Z,67.90
2019-05-19T20:28:56.103Z,68.00
2019-05-19T20:31:27.297Z,68.10
2019-05-19T20:33:58.690Z,68.10
2019-05-19T20:36:30.127Z,68.00
2019-05-19T20:39:01.453Z,68.10
2019-05-19T20:41:32.744Z,68.10
2019-05-19T20:44:04.077Z,68.10
2019-05-19T20:46:35.304Z,68.30
2019-05-19T20:49:06.534Z,68.40
2019-05-19T20:51:37.799Z,68.50
2019-05-19T20:54:09.102Z,68.50
2019-05-19T20:56:40.372Z,68.70
2019-05-19T20:59:11.520Z,68.80
2019-05-19T21:01:45.017Z,68.80
2019-05-19T21:04:16.030Z,68.60
2019-05-19T21:06:47.307Z,68.60
2019-05-19T21:09:18.533Z,68.70
2019-05-19T21:11:50.003Z,68.70
2019-05-19T21:14:21.311Z,68.80
2019-05-19T21:16:52.617Z,68.80
2019-05-19T21:19:23.955Z,68.80
2019-05-19T21:21:55.262Z,68.80
2019-05-19T21:24:26.544Z,68.80
2019-05-19T21:26:57.877Z,68.90
2019-05-19T21:29:29.160Z,69.00
2019-05-19T21:32:00.475Z,69.00
2019-05-19T21:34:31.974Z,69.00
2019-05-19T21:37:03.242Z,69.00
2019-05-19T21:39:34.558Z,69.80
2019-05-19T21:42:05.874Z,69.00
2019-05-19T21:44:37.101Z,69.10
2019-05-19T21:47:08.340Z,69.10
2019-05-19T21:49:39.671Z,69.20
2019-05-19T21:52:10.896Z,69.30
2019-05-19T21:54:42.474Z,69.50
2019-05-19T21:57:13.727Z,70.30
2019-05-19T21:59:44.937Z,69.50
2019-05-19T22:02:16.294Z,69.50
2019-05-19T22:04:47.667Z,69.50
2019-05-19T22:07:35.113Z,69.50
2019-05-19T22:10:06.748Z,70.10
2019-05-19T22:12:37.944Z,69.40
2019-05-19T22:15:11.687Z,69.40
2019-05-19T22:17:42.915Z,69.40
2019-05-19T22:20:14.139Z,69.10
2019-05-19T22:22:45.350Z,69.30
2019-05-19T22:25:16.691Z,69.40
2019-05-19T22:27:47.909Z,70.10
2019-05-19T22:30:19.181Z,69.50
2019-05-19T22:32:50.338Z,69.60
2019-05-19T22:35:21.625Z,69.70
2019-05-19T22:37:52.837Z,69.80
2019-05-19T22:40:24.107Z,70.10
2019-05-19T22:42:55.280Z,70.00
2019-05-19T22:45:26.477Z,70.00
2019-05-19T22:47:57.629Z,69.90
2019-05-19T22:50:28.826Z,69.90
2019-05-19T22:53:00.042Z,69.90
2019-05-19T22:55:31.317Z,69.90
2019-05-19T22:58:02.525Z,70.00
2019-05-19T23:00:33.726Z,70.00
2019-05-19T23:03:04.949Z,70.00
2019-05-19T23:05:36.150Z,69.90
2019-05-19T23:08:07.368Z,69.90
2019-05-19T23:10:38.549Z,70.00
2019-05-19T23:13:09.848Z,70.10
2019-05-19T23:15:41.038Z,70.10
2019-05-19T23:18:12.358Z,70.10
2019-05-19T23:20:43.623Z,70.30
2019-05-19T23:23:14.829Z,70.30
2019-05-19T23:25:46.098Z,70.30
2019-05-19T23:28:17.321Z,70.30
2019-05-19T23:30:48.523Z,70.40
2019-05-19T23:33:19.729Z,70.30
2019-05-19T23:35:50.917Z,70.80
2019-05-19T23:38:22.146Z,70.30
2019-05-19T23:40:53.505Z,70.30
2019-05-19T23:43:24.727Z,70.30
2019-05-19T23:45:55.961Z,70.30
2019-05-19T23:48:27.194Z,70.30
2019-05-19T23:50:58.387Z,70.20
2019-05-19T23:53:29.600Z,70.30
2019-05-19T23:56:00.871Z,70.10
2019-05-19T23:58:32.090Z,70.10
